sensor_id;sensor_type;location;lat;lon;timestamp;P1;durP1;ratioP1;P2;durP2;ratioP2
26034;SDS011;13809;48.632;11.576;2023-02-10T00:02:09;32.73;;;24.50;;
26034;SDS011;13809;48.632;11.576;2023-02-10T00:07:12;28.87;;;20.27;;
26034;SDS011;13809;48.632;11.576;2023-02-10T00:12:15;29.97;;;22.83;;
26034;SDS011;13809;48.632;11.576;2023-02-10T00:17:20;36.30;;;23.83;;
26034;SDS011;13809;48.632;11.576;2023-02-10T00:22:23;31.30;;;23.80;;
26034;SDS011;13809;48.632;11.576;2023-02-10T00:27:26;28.03;;;20.77;;
26034;SDS011;13809;48.632;11.576;2023-02-10T00:32:31;29.93;;;20.47;;
26034;SDS011;13809;48.632;11.576;2023-02-10T00:37:34;33.00;;;22.30;;
26034;SDS011;13809;48.632;11.576;2023-02-10T00:42:37;29.57;;;22.23;;
26034;SDS011;13809;48.632;11.576;2023-02-10T00:47:42;30.60;;;21.30;;
26034;SDS011;13809;48.632;11.576;2023-02-10T00:52:45;29.13;;;20.97;;
26034;SDS011;13809;48.632;11.576;2023-02-10T00:57:48;30.47;;;22.60;;
26034;SDS011;13809;48.632;11.576;2023-02-10T01:02:52;23.57;;;18.97;;
26034;SDS011;13809;48.632;11.576;2023-02-10T01:07:56;28.00;;;20.13;;
26034;SDS011;13809;48.632;11.576;2023-02-10T01:12:59;26.70;;;19.73;;
26034;SDS011;13809;48.632;11.576;2023-02-10T01:18:03;26.17;;;20.17;;
26034;SDS011;13809;48.632;11.576;2023-02-10T01:23:07;20.40;;;16.73;;
26034;SDS011;13809;48.632;11.576;2023-02-10T01:28:10;25.83;;;19.90;;
26034;SDS011;13809;48.632;11.576;2023-02-10T01:33:15;28.10;;;20.00;;
26034;SDS011;13809;48.632;11.576;2023-02-10T01:38:18;24.00;;;17.70;;
26034;SDS011;13809;48.632;11.576;2023-02-10T01:43:21;25.97;;;20.47;;
26034;SDS011;13809;48.632;11.576;2023-02-10T01:48:26;26.57;;;20.10;;
26034;SDS011;13809;48.632;11.576;2023-02-10T01:53:29;27.53;;;20.17;;
26034;SDS011;13809;48.632;11.576;2023-02-10T01:58:33;26.10;;;19.60;;
26034;SDS011;13809;48.632;11.576;2023-02-10T02:03:38;26.57;;;19.67;;
26034;SDS011;13809;48.632;11.576;2023-02-10T02:08:42;25.93;;;18.30;;
26034;SDS011;13809;48.632;11.576;2023-02-10T02:13:48;25.23;;;18.07;;
26034;SDS011;13809;48.632;11.576;2023-02-10T02:19:02;23.87;;;18.70;;
26034;SDS011;13809;48.632;11.576;2023-02-10T02:24:20;25.00;;;18.20;;
26034;SDS011;13809;48.632;11.576;2023-02-10T02:29:52;24.00;;;18.23;;
26034;SDS011;13809;48.632;11.576;2023-02-10T02:35:26;25.20;;;16.03;;
26034;SDS011;13809;48.632;11.576;2023-02-10T02:40:34;21.27;;;15.63;;
26034;SDS011;13809;48.632;11.576;2023-02-10T02:45:50;25.47;;;17.93;;
26034;SDS011;13809;48.632;11.576;2023-02-10T02:51:02;24.63;;;17.47;;
26034;SDS011;13809;48.632;11.576;2023-02-10T02:56:13;24.67;;;17.73;;
26034;SDS011;13809;48.632;11.576;2023-02-10T03:01:23;22.73;;;17.43;;
26034;SDS011;13809;48.632;11.576;2023-02-10T03:06:37;22.63;;;16.73;;
26034;SDS011;13809;48.632;11.576;2023-02-10T03:11:41;27.60;;;18.03;;
26034;SDS011;13809;48.632;11.576;2023-02-10T03:16:44;26.70;;;18.47;;
26034;SDS011;13809;48.632;11.576;2023-02-10T03:21:48;27.67;;;19.07;;
26034;SDS011;13809;48.632;11.576;2023-02-10T03:26:53;22.57;;;15.17;;
26034;SDS011;13809;48.632;11.576;2023-02-10T03:31:56;20.30;;;15.43;;
26034;SDS011;13809;48.632;11.576;2023-02-10T03:37:04;24.00;;;17.00;;
26034;SDS011;13809;48.632;11.576;2023-02-10T03:42:07;23.87;;;17.60;;
26034;SDS011;13809;48.632;11.576;2023-02-10T03:47:11;25.13;;;17.67;;
26034;SDS011;13809;48.632;11.576;2023-02-10T03:52:15;21.60;;;15.57;;
26034;SDS011;13809;48.632;11.576;2023-02-10T03:57:18;25.13;;;17.07;;
26034;SDS011;13809;48.632;11.576;2023-02-10T04:02:21;24.20;;;17.77;;
26034;SDS011;13809;48.632;11.576;2023-02-10T04:07:26;24.87;;;16.80;;
26034;SDS011;13809;48.632;11.576;2023-02-10T04:12:29;26.67;;;18.30;;
26034;SDS011;13809;48.632;11.576;2023-02-10T04:17:32;27.53;;;18.63;;
26034;SDS011;13809;48.632;11.576;2023-02-10T04:22:37;25.47;;;18.63;;
26034;SDS011;13809;48.632;11.576;2023-02-10T04:27:41;26.27;;;17.27;;
26034;SDS011;13809;48.632;11.576;2023-02-10T04:32:45;20.73;;;14.93;;
26034;SDS011;13809;48.632;11.576;2023-02-10T04:37:49;23.97;;;17.43;;
26034;SDS011;13809;48.632;11.576;2023-02-10T04:42:52;24.50;;;17.67;;
26034;SDS011;13809;48.632;11.576;2023-02-10T04:47:55;23.60;;;17.70;;
26034;SDS011;13809;48.632;11.576;2023-02-10T04:53:00;23.10;;;17.13;;
26034;SDS011;13809;48.632;11.576;2023-02-10T04:58:03;22.47;;;16.23;;
26034;SDS011;13809;48.632;11.576;2023-02-10T05:03:07;23.27;;;16.63;;
26034;SDS011;13809;48.632;11.576;2023-02-10T05:08:12;21.90;;;15.33;;
26034;SDS011;13809;48.632;11.576;2023-02-10T05:13:15;24.73;;;15.87;;
26034;SDS011;13809;48.632;11.576;2023-02-10T05:18:19;22.80;;;16.83;;
26034;SDS011;13809;48.632;11.576;2023-02-10T05:23:23;21.57;;;16.20;;
26034;SDS011;13809;48.632;11.576;2023-02-10T05:28:27;24.03;;;15.57;;
26034;SDS011;13809;48.632;11.576;2023-02-10T05:33:31;19.20;;;14.33;;
26034;SDS011;13809;48.632;11.576;2023-02-10T05:38:36;22.80;;;15.97;;
26034;SDS011;13809;48.632;11.576;2023-02-10T05:43:40;24.57;;;16.20;;
26034;SDS011;13809;48.632;11.576;2023-02-10T05:48:44;21.20;;;16.10;;
26034;SDS011;13809;48.632;11.576;2023-02-10T05:53:49;23.90;;;17.50;;
26034;SDS011;13809;48.632;11.576;2023-02-10T05:58:52;24.13;;;16.60;;
26034;SDS011;13809;48.632;11.576;2023-02-10T06:03:55;25.97;;;17.20;;
26034;SDS011;13809;48.632;11.576;2023-02-10T06:09:00;26.67;;;19.13;;
26034;SDS011;13809;48.632;11.576;2023-02-10T06:14:03;22.17;;;16.13;;
26034;SDS011;13809;48.632;11.576;2023-02-10T06:19:06;19.30;;;12.90;;
26034;SDS011;13809;48.632;11.576;2023-02-10T06:24:11;25.33;;;17.37;;
26034;SDS011;13809;48.632;11.576;2023-02-10T06:29:14;25.77;;;17.87;;
26034;SDS011;13809;48.632;11.576;2023-02-10T06:34:17;22.87;;;16.53;;
26034;SDS011;13809;48.632;11.576;2023-02-10T06:39:22;24.13;;;17.50;;
26034;SDS011;13809;48.632;11.576;2023-02-10T06:44:25;26.83;;;19.00;;
26034;SDS011;13809;48.632;11.576;2023-02-10T06:49:28;27.17;;;18.63;;
26034;SDS011;13809;48.632;11.576;2023-02-10T06:54:32;27.87;;;18.23;;
26034;SDS011;13809;48.632;11.576;2023-02-10T06:59:36;27.03;;;18.77;;
26034;SDS011;13809;48.632;11.576;2023-02-10T07:04:39;34.23;;;23.47;;
26034;SDS011;13809;48.632;11.576;2023-02-10T07:09:43;28.20;;;20.00;;
26034;SDS011;13809;48.632;11.576;2023-02-10T07:14:46;31.27;;;20.83;;
26034;SDS011;13809;48.632;11.576;2023-02-10T07:19:50;26.17;;;18.50;;
26034;SDS011;13809;48.632;11.576;2023-02-10T07:24:54;43.37;;;25.80;;
26034;SDS011;13809;48.632;11.576;2023-02-10T07:29:57;34.03;;;22.00;;
26034;SDS011;13809;48.632;11.576;2023-02-10T07:35:01;29.00;;;19.97;;
26034;SDS011;13809;48.632;11.576;2023-02-10T07:40:06;29.27;;;19.27;;
26034;SDS011;13809;48.632;11.576;2023-02-10T07:45:11;33.73;;;20.07;;
26034;SDS011;13809;48.632;11.576;2023-02-10T07:50:16;29.63;;;18.80;;
26034;SDS011;13809;48.632;11.576;2023-02-10T07:55:20;27.77;;;19.30;;
26034;SDS011;13809;48.632;11.576;2023-02-10T08:00:23;24.57;;;18.47;;
26034;SDS011;13809;48.632;11.576;2023-02-10T08:05:28;25.90;;;19.50;;
26034;SDS011;13809;48.632;11.576;2023-02-10T08:10:32;29.30;;;19.77;;
26034;SDS011;13809;48.632;11.576;2023-02-10T08:15:35;24.77;;;18.30;;
26034;SDS011;13809;48.632;11.576;2023-02-10T08:20:39;24.90;;;18.53;;
26034;SDS011;13809;48.632;11.576;2023-02-10T08:25:44;26.67;;;19.60;;
26034;SDS011;13809;48.632;11.576;2023-02-10T08:30:47;30.13;;;21.47;;
26034;SDS011;13809;48.632;11.576;2023-02-10T08:35:51;29.90;;;21.23;;
26034;SDS011;13809;48.632;11.576;2023-02-10T08:40:56;29.27;;;22.37;;
26034;SDS011;13809;48.632;11.576;2023-02-10T08:46:00;31.67;;;21.20;;
26034;SDS011;13809;48.632;11.576;2023-02-10T08:51:05;27.60;;;22.00;;
26034;SDS011;13809;48.632;11.576;2023-02-10T08:56:13;29.40;;;22.67;;
26034;SDS011;13809;48.632;11.576;2023-02-10T09:01:19;29.53;;;23.13;;
26034;SDS011;13809;48.632;11.576;2023-02-10T09:06:27;32.73;;;24.43;;
26034;SDS011;13809;48.632;11.576;2023-02-10T09:11:34;30.33;;;24.30;;
26034;SDS011;13809;48.632;11.576;2023-02-10T09:16:37;36.03;;;26.33;;
26034;SDS011;13809;48.632;11.576;2023-02-10T09:21:41;30.87;;;24.67;;
26034;SDS011;13809;48.632;11.576;2023-02-10T09:26:49;32.27;;;25.67;;
26034;SDS011;13809;48.632;11.576;2023-02-10T09:31:52;30.60;;;26.47;;
26034;SDS011;13809;48.632;11.576;2023-02-10T09:36:55;30.07;;;25.03;;
26034;SDS011;13809;48.632;11.576;2023-02-10T09:42:08;32.03;;;25.43;;
26034;SDS011;13809;48.632;11.576;2023-02-10T09:47:24;30.80;;;25.17;;
26034;SDS011;13809;48.632;11.576;2023-02-10T09:52:42;31.07;;;25.70;;
26034;SDS011;13809;48.632;11.576;2023-02-10T09:57:57;29.47;;;25.00;;
26034;SDS011;13809;48.632;11.576;2023-02-10T10:03:03;27.90;;;23.43;;
26034;SDS011;13809;48.632;11.576;2023-02-10T10:08:13;26.83;;;22.93;;
26034;SDS011;13809;48.632;11.576;2023-02-10T10:13:25;30.70;;;23.97;;
26034;SDS011;13809;48.632;11.576;2023-02-10T10:18:31;28.30;;;23.70;;
26034;SDS011;13809;48.632;11.576;2023-02-10T10:23:45;28.60;;;22.93;;
26034;SDS011;13809;48.632;11.576;2023-02-10T10:29:03;26.30;;;21.77;;
26034;SDS011;13809;48.632;11.576;2023-02-10T10:34:16;28.70;;;23.43;;
26034;SDS011;13809;48.632;11.576;2023-02-10T10:39:23;25.80;;;22.33;;
26034;SDS011;13809;48.632;11.576;2023-02-10T10:44:33;27.60;;;23.07;;
26034;SDS011;13809;48.632;11.576;2023-02-10T10:49:37;28.57;;;23.53;;
26034;SDS011;13809;48.632;11.576;2023-02-10T10:54:41;27.63;;;22.53;;
26034;SDS011;13809;48.632;11.576;2023-02-10T10:59:46;27.73;;;23.17;;
26034;SDS011;13809;48.632;11.576;2023-02-10T11:05:00;28.03;;;23.50;;
26034;SDS011;13809;48.632;11.576;2023-02-10T11:10:04;27.97;;;23.37;;
26034;SDS011;13809;48.632;11.576;2023-02-10T11:15:23;28.27;;;22.33;;
26034;SDS011;13809;48.632;11.576;2023-02-10T11:20:33;28.03;;;23.83;;
26034;SDS011;13809;48.632;11.576;2023-02-10T11:25:38;26.57;;;23.10;;
26034;SDS011;13809;48.632;11.576;2023-02-10T11:30:45;29.23;;;23.90;;
26034;SDS011;13809;48.632;11.576;2023-02-10T11:35:52;28.10;;;24.03;;
26034;SDS011;13809;48.632;11.576;2023-02-10T11:41:01;30.20;;;23.33;;
26034;SDS011;13809;48.632;11.576;2023-02-10T11:46:16;26.43;;;22.23;;
26034;SDS011;13809;48.632;11.576;2023-02-10T11:51:23;26.90;;;22.40;;
26034;SDS011;13809;48.632;11.576;2023-02-10T11:56:26;28.17;;;23.90;;
26034;SDS011;13809;48.632;11.576;2023-02-10T12:01:59;27.20;;;22.47;;
26034;SDS011;13809;48.632;11.576;2023-02-10T12:07:07;27.10;;;23.17;;
26034;SDS011;13809;48.632;11.576;2023-02-10T12:12:22;24.37;;;21.37;;
26034;SDS011;13809;48.632;11.576;2023-02-10T12:17:35;26.10;;;21.50;;
26034;SDS011;13809;48.632;11.576;2023-02-10T12:22:44;27.33;;;23.03;;
26034;SDS011;13809;48.632;11.576;2023-02-10T12:28:01;26.53;;;22.90;;
26034;SDS011;13809;48.632;11.576;2023-02-10T12:33:26;26.73;;;22.73;;
26034;SDS011;13809;48.632;11.576;2023-02-10T12:38:46;28.43;;;22.73;;
26034;SDS011;13809;48.632;11.576;2023-02-10T12:43:59;25.80;;;21.87;;
26034;SDS011;13809;48.632;11.576;2023-02-10T12:49:17;24.63;;;21.70;;
26034;SDS011;13809;48.632;11.576;2023-02-10T12:54:30;25.80;;;22.00;;
26034;SDS011;13809;48.632;11.576;2023-02-10T12:59:46;27.37;;;23.97;;
26034;SDS011;13809;48.632;11.576;2023-02-10T13:04:57;26.27;;;23.47;;
26034;SDS011;13809;48.632;11.576;2023-02-10T13:10:08;28.17;;;24.03;;
26034;SDS011;13809;48.632;11.576;2023-02-10T13:15:21;28.27;;;24.83;;
26034;SDS011;13809;48.632;11.576;2023-02-10T13:20:34;28.37;;;24.70;;
26034;SDS011;13809;48.632;11.576;2023-02-10T13:25:49;26.67;;;23.57;;
26034;SDS011;13809;48.632;11.576;2023-02-10T13:31:15;28.40;;;24.00;;
26034;SDS011;13809;48.632;11.576;2023-02-10T13:36:29;27.33;;;23.07;;
26034;SDS011;13809;48.632;11.576;2023-02-10T13:41:37;27.27;;;23.37;;
26034;SDS011;13809;48.632;11.576;2023-02-10T13:46:49;26.77;;;22.63;;
26034;SDS011;13809;48.632;11.576;2023-02-10T13:52:04;26.27;;;23.43;;
26034;SDS011;13809;48.632;11.576;2023-02-10T13:57:22;27.00;;;23.47;;
26034;SDS011;13809;48.632;11.576;2023-02-10T14:02:30;25.80;;;23.00;;
26034;SDS011;13809;48.632;11.576;2023-02-10T14:07:35;29.77;;;25.97;;
26034;SDS011;13809;48.632;11.576;2023-02-10T14:12:38;28.40;;;24.93;;
26034;SDS011;13809;48.632;11.576;2023-02-10T14:17:43;28.10;;;24.73;;
26034;SDS011;13809;48.632;11.576;2023-02-10T14:23:00;29.33;;;24.37;;
26034;SDS011;13809;48.632;11.576;2023-02-10T14:28:05;27.50;;;23.47;;
26034;SDS011;13809;48.632;11.576;2023-02-10T14:33:21;27.47;;;23.90;;
26034;SDS011;13809;48.632;11.576;2023-02-10T14:38:30;27.47;;;24.03;;
26034;SDS011;13809;48.632;11.576;2023-02-10T14:43:35;25.63;;;22.77;;
26034;SDS011;13809;48.632;11.576;2023-02-10T14:48:39;27.30;;;24.33;;
26034;SDS011;13809;48.632;11.576;2023-02-10T14:53:43;27.00;;;22.43;;
26034;SDS011;13809;48.632;11.576;2023-02-10T14:58:47;25.87;;;21.27;;
26034;SDS011;13809;48.632;11.576;2023-02-10T15:03:52;24.90;;;22.20;;
26034;SDS011;13809;48.632;11.576;2023-02-10T15:09:00;24.47;;;21.47;;
26034;SDS011;13809;48.632;11.576;2023-02-10T15:14:05;24.93;;;21.57;;
26034;SDS011;13809;48.632;11.576;2023-02-10T15:19:17;25.27;;;22.13;;
26034;SDS011;13809;48.632;11.576;2023-02-10T15:24:25;24.37;;;21.67;;
26034;SDS011;13809;48.632;11.576;2023-02-10T15:29:34;25.97;;;22.77;;
26034;SDS011;13809;48.632;11.576;2023-02-10T15:34:38;25.70;;;21.80;;
26034;SDS011;13809;48.632;11.576;2023-02-10T15:39:42;24.80;;;21.80;;
26034;SDS011;13809;48.632;11.576;2023-02-10T15:45:00;24.67;;;21.73;;
26034;SDS011;13809;48.632;11.576;2023-02-10T15:50:05;24.67;;;20.53;;
26034;SDS011;13809;48.632;11.576;2023-02-10T15:55:14;24.37;;;21.27;;
26034;SDS011;13809;48.632;11.576;2023-02-10T16:00:24;22.70;;;20.23;;
26034;SDS011;13809;48.632;11.576;2023-02-10T16:05:28;26.07;;;23.27;;
26034;SDS011;13809;48.632;11.576;2023-02-10T16:10:32;25.33;;;21.03;;
26034;SDS011;13809;48.632;11.576;2023-02-10T16:15:36;33.33;;;24.77;;
26034;SDS011;13809;48.632;11.576;2023-02-10T16:20:39;29.30;;;23.13;;
26034;SDS011;13809;48.632;11.576;2023-02-10T16:25:44;29.00;;;21.83;;
26034;SDS011;13809;48.632;11.576;2023-02-10T16:30:50;25.43;;;22.73;;
26034;SDS011;13809;48.632;11.576;2023-02-10T16:35:54;29.47;;;23.40;;
26034;SDS011;13809;48.632;11.576;2023-02-10T16:40:58;23.93;;;20.70;;
26034;SDS011;13809;48.632;11.576;2023-02-10T16:46:07;24.97;;;20.63;;
26034;SDS011;13809;48.632;11.576;2023-02-10T16:51:12;24.33;;;19.40;;
26034;SDS011;13809;48.632;11.576;2023-02-10T16:56:17;25.90;;;21.03;;
26034;SDS011;13809;48.632;11.576;2023-02-10T17:01:20;36.53;;;27.67;;
26034;SDS011;13809;48.632;11.576;2023-02-10T17:06:24;29.87;;;26.23;;
26034;SDS011;13809;48.632;11.576;2023-02-10T17:11:29;29.93;;;23.80;;
26034;SDS011;13809;48.632;11.576;2023-02-10T17:16:33;29.77;;;24.63;;
26034;SDS011;13809;48.632;11.576;2023-02-10T17:21:40;24.80;;;21.03;;
26034;SDS011;13809;48.632;11.576;2023-02-10T17:26:45;24.40;;;20.67;;
26034;SDS011;13809;48.632;11.576;2023-02-10T17:31:48;26.90;;;23.40;;
26034;SDS011;13809;48.632;11.576;2023-02-10T17:36:52;24.47;;;20.10;;
26034;SDS011;13809;48.632;11.576;2023-02-10T17:41:56;30.00;;;25.53;;
26034;SDS011;13809;48.632;11.576;2023-02-10T17:47:00;25.40;;;21.20;;
26034;SDS011;13809;48.632;11.576;2023-02-10T17:52:03;29.53;;;23.97;;
26034;SDS011;13809;48.632;11.576;2023-02-10T17:57:08;26.23;;;20.87;;
26034;SDS011;13809;48.632;11.576;2023-02-10T18:02:15;25.27;;;22.17;;
26034;SDS011;13809;48.632;11.576;2023-02-10T18:07:19;30.03;;;25.57;;
26034;SDS011;13809;48.632;11.576;2023-02-10T18:12:23;34.70;;;27.47;;
26034;SDS011;13809;48.632;11.576;2023-02-10T18:17:26;36.40;;;27.00;;
26034;SDS011;13809;48.632;11.576;2023-02-10T18:22:30;29.00;;;22.90;;
26034;SDS011;13809;48.632;11.576;2023-02-10T18:27:34;28.50;;;24.07;;
26034;SDS011;13809;48.632;11.576;2023-02-10T18:32:38;34.60;;;25.17;;
26034;SDS011;13809;48.632;11.576;2023-02-10T18:37:42;30.00;;;23.87;;
26034;SDS011;13809;48.632;11.576;2023-02-10T18:42:47;26.13;;;22.07;;
26034;SDS011;13809;48.632;11.576;2023-02-10T18:47:50;27.60;;;21.90;;
26034;SDS011;13809;48.632;11.576;2023-02-10T18:52:53;26.83;;;22.93;;
26034;SDS011;13809;48.632;11.576;2023-02-10T18:57:58;23.17;;;18.83;;
26034;SDS011;13809;48.632;11.576;2023-02-10T19:03:03;25.13;;;21.20;;
26034;SDS011;13809;48.632;11.576;2023-02-10T19:08:06;37.23;;;27.93;;
26034;SDS011;13809;48.632;11.576;2023-02-10T19:13:11;36.23;;;26.73;;
26034;SDS011;13809;48.632;11.576;2023-02-10T19:18:14;34.60;;;26.17;;
26034;SDS011;13809;48.632;11.576;2023-02-10T19:23:17;30.27;;;24.20;;
26034;SDS011;13809;48.632;11.576;2023-02-10T19:28:23;25.97;;;22.00;;
26034;SDS011;13809;48.632;11.576;2023-02-10T19:33:27;29.00;;;23.17;;
26034;SDS011;13809;48.632;11.576;2023-02-10T19:38:30;28.33;;;23.33;;
26034;SDS011;13809;48.632;11.576;2023-02-10T19:43:34;29.50;;;23.40;;
26034;SDS011;13809;48.632;11.576;2023-02-10T19:48:38;28.13;;;22.67;;
26034;SDS011;13809;48.632;11.576;2023-02-10T19:53:42;29.27;;;23.90;;
26034;SDS011;13809;48.632;11.576;2023-02-10T19:58:48;30.23;;;25.83;;
26034;SDS011;13809;48.632;11.576;2023-02-10T20:03:52;28.03;;;22.77;;
26034;SDS011;13809;48.632;11.576;2023-02-10T20:08:57;31.83;;;26.23;;
26034;SDS011;13809;48.632;11.576;2023-02-10T20:14:02;30.97;;;24.53;;
26034;SDS011;13809;48.632;11.576;2023-02-10T20:19:06;28.67;;;22.50;;
26034;SDS011;13809;48.632;11.576;2023-02-10T20:24:11;27.67;;;22.93;;
26034;SDS011;13809;48.632;11.576;2023-02-10T20:29:16;32.17;;;23.97;;
26034;SDS011;13809;48.632;11.576;2023-02-10T20:34:19;25.40;;;21.43;;
26034;SDS011;13809;48.632;11.576;2023-02-10T20:39:22;28.67;;;24.17;;
26034;SDS011;13809;48.632;11.576;2023-02-10T20:44:27;27.17;;;24.23;;
26034;SDS011;13809;48.632;11.576;2023-02-10T20:49:30;29.40;;;23.57;;
26034;SDS011;13809;48.632;11.576;2023-02-10T20:54:33;35.80;;;28.60;;
26034;SDS011;13809;48.632;11.576;2023-02-10T20:59:39;34.90;;;25.93;;
26034;SDS011;13809;48.632;11.576;2023-02-10T21:04:42;26.87;;;21.70;;
26034;SDS011;13809;48.632;11.576;2023-02-10T21:09:49;31.10;;;24.90;;
26034;SDS011;13809;48.632;11.576;2023-02-10T21:14:53;34.70;;;25.60;;
26034;SDS011;13809;48.632;11.576;2023-02-10T21:19:57;33.10;;;25.37;;
26034;SDS011;13809;48.632;11.576;2023-02-10T21:25:04;32.87;;;26.73;;
26034;SDS011;13809;48.632;11.576;2023-02-10T21:30:10;30.57;;;22.70;;
26034;SDS011;13809;48.632;11.576;2023-02-10T21:35:14;27.57;;;21.80;;
26034;SDS011;13809;48.632;11.576;2023-02-10T21:40:17;33.43;;;26.03;;
26034;SDS011;13809;48.632;11.576;2023-02-10T21:45:22;30.87;;;22.73;;
26034;SDS011;13809;48.632;11.576;2023-02-10T21:50:25;33.07;;;26.23;;
26034;SDS011;13809;48.632;11.576;2023-02-10T21:55:29;30.27;;;23.57;;
26034;SDS011;13809;48.632;11.576;2023-02-10T22:00:33;25.73;;;21.60;;
26034;SDS011;13809;48.632;11.576;2023-02-10T22:05:36;30.10;;;24.50;;
26034;SDS011;13809;48.632;11.576;2023-02-10T22:10:40;36.87;;;28.47;;
26034;SDS011;13809;48.632;11.576;2023-02-10T22:15:44;40.50;;;30.27;;
26034;SDS011;13809;48.632;11.576;2023-02-10T22:20:54;41.43;;;28.80;;
26034;SDS011;13809;48.632;11.576;2023-02-10T22:25:57;33.33;;;26.50;;
26034;SDS011;13809;48.632;11.576;2023-02-10T22:31:04;25.47;;;20.23;;
26034;SDS011;13809;48.632;11.576;2023-02-10T22:36:08;27.63;;;22.43;;
26034;SDS011;13809;48.632;11.576;2023-02-10T22:41:13;32.67;;;24.60;;
26034;SDS011;13809;48.632;11.576;2023-02-10T22:46:19;29.33;;;23.50;;
26034;SDS011;13809;48.632;11.576;2023-02-10T22:51:23;29.30;;;23.87;;
26034;SDS011;13809;48.632;11.576;2023-02-10T22:56:28;31.60;;;24.73;;
26034;SDS011;13809;48.632;11.576;2023-02-10T23:01:35;39.00;;;27.00;;
26034;SDS011;13809;48.632;11.576;2023-02-10T23:06:39;38.03;;;27.57;;
26034;SDS011;13809;48.632;11.576;2023-02-10T23:11:44;45.93;;;28.30;;
26034;SDS011;13809;48.632;11.576;2023-02-10T23:16:50;36.00;;;27.03;;
26034;SDS011;13809;48.632;11.576;2023-02-10T23:21:57;29.17;;;21.77;;
26034;SDS011;13809;48.632;11.576;2023-02-10T23:27:02;31.47;;;24.10;;
26034;SDS011;13809;48.632;11.576;2023-02-10T23:32:07;37.13;;;26.27;;
26034;SDS011;13809;48.632;11.576;2023-02-10T23:37:10;28.00;;;22.33;;
26034;SDS011;13809;48.632;11.576;2023-02-10T23:42:14;30.10;;;23.97;;
26034;SDS011;13809;48.632;11.576;2023-02-10T23:47:18;33.07;;;25.30;;
26034;SDS011;13809;48.632;11.576;2023-02-10T23:52:21;32.60;;;23.30;;
26034;SDS011;13809;48.632;11.576;2023-02-10T23:57:24;23.93;;;20.30;;
